sensor_id;sensor_type;location;lat;lon;timestamp;P1;durP1;ratioP1;P2;durP2;ratioP2
41677;SDS011;27364;49.026;8.712;2022-09-02T00:00:54;6.30;;;5.68;;
41677;SDS011;27364;49.026;8.712;2022-09-02T00:03:24;7.47;;;5.15;;
41677;SDS011;27364;49.026;8.712;2022-09-02T00:05:50;6.97;;;5.18;;
41677;SDS011;27364;49.026;8.712;2022-09-02T00:08:16;7.80;;;5.75;;
41677;SDS011;27364;49.026;8.712;2022-09-02T00:10:42;6.88;;;5.28;;
41677;SDS011;27364;49.026;8.712;2022-09-02T00:13:09;6.45;;;4.97;;
41677;SDS011;27364;49.026;8.712;2022-09-02T00:18:02;5.65;;;5.05;;
41677;SDS011;27364;49.026;8.712;2022-09-02T00:20:29;7.28;;;5.20;;
41677;SDS011;27364;49.026;8.712;2022-09-02T00:22:55;6.78;;;5.18;;
41677;SDS011;27364;49.026;8.712;2022-09-02T00:25:20;5.20;;;4.68;;
41677;SDS011;27364;49.026;8.712;2022-09-02T00:27:47;6.85;;;5.32;;
41677;SDS011;27364;49.026;8.712;2022-09-02T00:30:13;9.02;;;5.60;;
41677;SDS011;27364;49.026;8.712;2022-09-02T00:32:38;5.82;;;5.20;;
41677;SDS011;27364;49.026;8.712;2022-09-02T00:35:05;5.45;;;4.85;;
41677;SDS011;27364;49.026;8.712;2022-09-02T00:37:31;7.25;;;5.43;;
41677;SDS011;27364;49.026;8.712;2022-09-02T00:39:56;7.07;;;5.40;;
41677;SDS011;27364;49.026;8.712;2022-09-02T00:42:22;5.88;;;4.90;;
41677;SDS011;27364;49.026;8.712;2022-09-02T00:44:49;5.93;;;5.32;;
41677;SDS011;27364;49.026;8.712;2022-09-02T00:47:15;6.18;;;4.95;;
41677;SDS011;27364;49.026;8.712;2022-09-02T00:49:41;6.25;;;5.00;;
41677;SDS011;27364;49.026;8.712;2022-09-02T00:52:24;6.10;;;4.93;;
41677;SDS011;27364;49.026;8.712;2022-09-02T00:55:04;7.93;;;5.10;;
41677;SDS011;27364;49.026;8.712;2022-09-02T00:57:40;13.63;;;5.25;;
41677;SDS011;27364;49.026;8.712;2022-09-02T01:00:20;6.57;;;5.18;;
41677;SDS011;27364;49.026;8.712;2022-09-02T01:02:53;8.52;;;5.10;;
41677;SDS011;27364;49.026;8.712;2022-09-02T01:05:22;6.60;;;5.18;;
41677;SDS011;27364;49.026;8.712;2022-09-02T01:07:50;6.38;;;5.28;;
41677;SDS011;27364;49.026;8.712;2022-09-02T01:10:21;7.40;;;5.15;;
41677;SDS011;27364;49.026;8.712;2022-09-02T01:12:53;7.93;;;5.95;;
41677;SDS011;27364;49.026;8.712;2022-09-02T01:15:20;7.13;;;5.60;;
41677;SDS011;27364;49.026;8.712;2022-09-02T01:17:46;6.70;;;5.30;;
41677;SDS011;27364;49.026;8.712;2022-09-02T01:20:17;6.35;;;5.45;;
41677;SDS011;27364;49.026;8.712;2022-09-02T01:22:45;6.00;;;5.25;;
41677;SDS011;27364;49.026;8.712;2022-09-02T01:25:16;7.60;;;4.97;;
41677;SDS011;27364;49.026;8.712;2022-09-02T01:27:44;5.60;;;4.95;;
41677;SDS011;27364;49.026;8.712;2022-09-02T01:30:12;6.50;;;4.70;;
41677;SDS011;27364;49.026;8.712;2022-09-02T01:32:40;8.68;;;5.05;;
41677;SDS011;27364;49.026;8.712;2022-09-02T01:35:06;6.22;;;5.15;;
41677;SDS011;27364;49.026;8.712;2022-09-02T01:37:32;5.72;;;4.88;;
41677;SDS011;27364;49.026;8.712;2022-09-02T01:39:58;8.73;;;5.13;;
41677;SDS011;27364;49.026;8.712;2022-09-02T01:42:24;6.57;;;4.63;;
41677;SDS011;27364;49.026;8.712;2022-09-02T01:44:50;8.07;;;5.28;;
41677;SDS011;27364;49.026;8.712;2022-09-02T01:47:21;5.93;;;4.90;;
41677;SDS011;27364;49.026;8.712;2022-09-02T01:49:48;6.65;;;4.93;;
41677;SDS011;27364;49.026;8.712;2022-09-02T01:52:15;5.78;;;4.97;;
41677;SDS011;27364;49.026;8.712;2022-09-02T01:54:42;5.43;;;4.40;;
41677;SDS011;27364;49.026;8.712;2022-09-02T01:57:08;5.60;;;4.93;;
41677;SDS011;27364;49.026;8.712;2022-09-02T01:59:34;6.70;;;5.22;;
41677;SDS011;27364;49.026;8.712;2022-09-02T02:02:00;6.72;;;5.45;;
41677;SDS011;27364;49.026;8.712;2022-09-02T02:04:26;7.60;;;5.20;;
41677;SDS011;27364;49.026;8.712;2022-09-02T02:06:53;6.03;;;5.10;;
41677;SDS011;27364;49.026;8.712;2022-09-02T02:09:19;7.05;;;5.30;;
41677;SDS011;27364;49.026;8.712;2022-09-02T02:11:45;5.93;;;5.00;;
41677;SDS011;27364;49.026;8.712;2022-09-02T02:14:11;8.93;;;5.10;;
41677;SDS011;27364;49.026;8.712;2022-09-02T02:16:37;6.75;;;5.07;;
41677;SDS011;27364;49.026;8.712;2022-09-02T02:19:03;6.68;;;4.70;;
41677;SDS011;27364;49.026;8.712;2022-09-02T02:21:29;5.95;;;4.60;;
41677;SDS011;27364;49.026;8.712;2022-09-02T02:23:55;6.85;;;5.20;;
41677;SDS011;27364;49.026;8.712;2022-09-02T02:26:25;9.00;;;5.05;;
41677;SDS011;27364;49.026;8.712;2022-09-02T02:28:51;7.22;;;5.45;;
41677;SDS011;27364;49.026;8.712;2022-09-02T02:31:17;8.05;;;4.97;;
41677;SDS011;27364;49.026;8.712;2022-09-02T02:33:42;6.93;;;5.20;;
41677;SDS011;27364;49.026;8.712;2022-09-02T02:38:36;5.60;;;4.55;;
41677;SDS011;27364;49.026;8.712;2022-09-02T02:41:03;5.50;;;4.90;;
41677;SDS011;27364;49.026;8.712;2022-09-02T02:43:30;6.40;;;4.85;;
41677;SDS011;27364;49.026;8.712;2022-09-02T02:45:59;5.28;;;4.60;;
41677;SDS011;27364;49.026;8.712;2022-09-02T02:48:25;5.88;;;4.50;;
41677;SDS011;27364;49.026;8.712;2022-09-02T02:50:50;7.63;;;4.95;;
41677;SDS011;27364;49.026;8.712;2022-09-02T02:53:16;8.80;;;5.07;;
41677;SDS011;27364;49.026;8.712;2022-09-02T02:55:42;8.70;;;4.80;;
41677;SDS011;27364;49.026;8.712;2022-09-02T02:58:08;9.30;;;5.25;;
41677;SDS011;27364;49.026;8.712;2022-09-02T03:00:34;7.25;;;4.72;;
41677;SDS011;27364;49.026;8.712;2022-09-02T03:03:05;7.68;;;4.93;;
41677;SDS011;27364;49.026;8.712;2022-09-02T03:05:32;5.30;;;4.57;;
41677;SDS011;27364;49.026;8.712;2022-09-02T03:08:00;5.78;;;4.72;;
41677;SDS011;27364;49.026;8.712;2022-09-02T03:10:26;6.53;;;4.53;;
41677;SDS011;27364;49.026;8.712;2022-09-02T03:12:52;5.88;;;4.45;;
41677;SDS011;27364;49.026;8.712;2022-09-02T03:15:18;6.85;;;4.47;;
41677;SDS011;27364;49.026;8.712;2022-09-02T03:17:45;5.53;;;4.18;;
41677;SDS011;27364;49.026;8.712;2022-09-02T03:20:11;4.85;;;4.10;;
41677;SDS011;27364;49.026;8.712;2022-09-02T03:22:37;6.38;;;4.45;;
41677;SDS011;27364;49.026;8.712;2022-09-02T03:25:07;5.72;;;4.43;;
41677;SDS011;27364;49.026;8.712;2022-09-02T03:27:36;6.20;;;4.47;;
41677;SDS011;27364;49.026;8.712;2022-09-02T03:30:02;5.53;;;4.45;;
41677;SDS011;27364;49.026;8.712;2022-09-02T03:32:29;7.00;;;4.47;;
41677;SDS011;27364;49.026;8.712;2022-09-02T03:34:54;7.07;;;4.25;;
41677;SDS011;27364;49.026;8.712;2022-09-02T03:37:20;5.85;;;4.43;;
41677;SDS011;27364;49.026;8.712;2022-09-02T03:39:45;6.25;;;4.57;;
41677;SDS011;27364;49.026;8.712;2022-09-02T03:42:11;5.78;;;4.45;;
41677;SDS011;27364;49.026;8.712;2022-09-02T03:44:37;5.72;;;4.30;;
41677;SDS011;27364;49.026;8.712;2022-09-02T03:47:05;7.30;;;4.45;;
41677;SDS011;27364;49.026;8.712;2022-09-02T03:49:31;6.25;;;4.40;;
41677;SDS011;27364;49.026;8.712;2022-09-02T03:51:56;5.93;;;4.88;;
41677;SDS011;27364;49.026;8.712;2022-09-02T03:54:22;5.55;;;4.45;;
41677;SDS011;27364;49.026;8.712;2022-09-02T03:56:48;7.40;;;4.40;;
41677;SDS011;27364;49.026;8.712;2022-09-02T03:59:13;5.88;;;4.20;;
41677;SDS011;27364;49.026;8.712;2022-09-02T04:01:39;5.72;;;4.22;;
41677;SDS011;27364;49.026;8.712;2022-09-02T04:04:05;6.47;;;4.30;;
41677;SDS011;27364;49.026;8.712;2022-09-02T04:06:31;5.63;;;4.68;;
41677;SDS011;27364;49.026;8.712;2022-09-02T04:08:57;4.70;;;3.92;;
41677;SDS011;27364;49.026;8.712;2022-09-02T04:11:23;5.38;;;4.40;;
41677;SDS011;27364;49.026;8.712;2022-09-02T04:13:49;5.88;;;4.45;;
41677;SDS011;27364;49.026;8.712;2022-09-02T04:16:17;6.53;;;4.35;;
41677;SDS011;27364;49.026;8.712;2022-09-02T04:18:46;8.65;;;4.20;;
41677;SDS011;27364;49.026;8.712;2022-09-02T04:21:11;5.07;;;4.43;;
41677;SDS011;27364;49.026;8.712;2022-09-02T04:23:37;5.47;;;4.10;;
41677;SDS011;27364;49.026;8.712;2022-09-02T04:26:04;5.50;;;4.22;;
41677;SDS011;27364;49.026;8.712;2022-09-02T04:28:32;5.25;;;4.20;;
41677;SDS011;27364;49.026;8.712;2022-09-02T04:30:58;5.68;;;4.45;;
41677;SDS011;27364;49.026;8.712;2022-09-02T04:33:27;6.60;;;4.47;;
41677;SDS011;27364;49.026;8.712;2022-09-02T04:35:52;7.00;;;3.97;;
41677;SDS011;27364;49.026;8.712;2022-09-02T04:38:18;6.18;;;4.03;;
41677;SDS011;27364;49.026;8.712;2022-09-02T04:40:44;4.63;;;4.07;;
41677;SDS011;27364;49.026;8.712;2022-09-02T04:43:11;5.32;;;4.00;;
41677;SDS011;27364;49.026;8.712;2022-09-02T04:45:38;5.53;;;4.13;;
41677;SDS011;27364;49.026;8.712;2022-09-02T04:48:05;8.73;;;6.25;;
41677;SDS011;27364;49.026;8.712;2022-09-02T04:50:30;9.20;;;5.78;;
41677;SDS011;27364;49.026;8.712;2022-09-02T04:52:56;8.25;;;5.68;;
41677;SDS011;27364;49.026;8.712;2022-09-02T04:55:22;8.60;;;6.13;;
41677;SDS011;27364;49.026;8.712;2022-09-02T04:57:47;9.20;;;6.68;;
41677;SDS011;27364;49.026;8.712;2022-09-02T05:00:13;10.15;;;7.75;;
41677;SDS011;27364;49.026;8.712;2022-09-02T05:02:38;11.30;;;7.50;;
41677;SDS011;27364;49.026;8.712;2022-09-02T05:05:05;8.95;;;7.22;;
41677;SDS011;27364;49.026;8.712;2022-09-02T05:07:31;11.90;;;7.10;;
41677;SDS011;27364;49.026;8.712;2022-09-02T05:09:59;8.95;;;5.93;;
41677;SDS011;27364;49.026;8.712;2022-09-02T05:12:24;6.55;;;5.18;;
41677;SDS011;27364;49.026;8.712;2022-09-02T05:14:52;5.93;;;4.80;;
41677;SDS011;27364;49.026;8.712;2022-09-02T05:17:18;5.80;;;4.13;;
41677;SDS011;27364;49.026;8.712;2022-09-02T05:19:44;6.25;;;4.40;;
41677;SDS011;27364;49.026;8.712;2022-09-02T05:22:09;5.63;;;4.13;;
41677;SDS011;27364;49.026;8.712;2022-09-02T05:24:35;9.93;;;4.25;;
41677;SDS011;27364;49.026;8.712;2022-09-02T05:27:00;6.60;;;4.13;;
41677;SDS011;27364;49.026;8.712;2022-09-02T05:29:26;5.47;;;4.32;;
41677;SDS011;27364;49.026;8.712;2022-09-02T05:31:51;5.07;;;4.15;;
41677;SDS011;27364;49.026;8.712;2022-09-02T05:34:17;8.23;;;4.15;;
41677;SDS011;27364;49.026;8.712;2022-09-02T05:36:43;6.57;;;4.45;;
41677;SDS011;27364;49.026;8.712;2022-09-02T05:39:08;7.00;;;4.03;;
41677;SDS011;27364;49.026;8.712;2022-09-02T05:41:34;5.60;;;3.95;;
41677;SDS011;27364;49.026;8.712;2022-09-02T05:44:01;7.32;;;4.28;;
41677;SDS011;27364;49.026;8.712;2022-09-02T05:46:29;6.82;;;4.18;;
41677;SDS011;27364;49.026;8.712;2022-09-02T05:48:55;6.35;;;4.22;;
41677;SDS011;27364;49.026;8.712;2022-09-02T05:51:39;6.10;;;4.80;;
41677;SDS011;27364;49.026;8.712;2022-09-02T05:54:16;9.00;;;4.60;;
41677;SDS011;27364;49.026;8.712;2022-09-02T05:56:43;5.75;;;4.20;;
41677;SDS011;27364;49.026;8.712;2022-09-02T05:59:12;5.82;;;4.47;;
41677;SDS011;27364;49.026;8.712;2022-09-02T07:12:06;7.63;;;2.97;;
41677;SDS011;27364;49.026;8.712;2022-09-02T07:14:36;5.85;;;2.80;;
41677;SDS011;27364;49.026;8.712;2022-09-02T07:17:03;4.15;;;2.60;;
41677;SDS011;27364;49.026;8.712;2022-09-02T07:19:29;7.57;;;3.10;;
41677;SDS011;27364;49.026;8.712;2022-09-02T07:21:55;4.90;;;2.50;;
41677;SDS011;27364;49.026;8.712;2022-09-02T07:24:21;4.32;;;2.70;;
41677;SDS011;27364;49.026;8.712;2022-09-02T07:26:47;5.85;;;2.70;;
41677;SDS011;27364;49.026;8.712;2022-09-02T07:29:14;4.20;;;2.70;;
41677;SDS011;27364;49.026;8.712;2022-09-02T07:31:41;4.53;;;2.50;;
41677;SDS011;27364;49.026;8.712;2022-09-02T07:34:09;7.45;;;2.78;;
41677;SDS011;27364;49.026;8.712;2022-09-02T07:36:35;5.88;;;2.55;;
41677;SDS011;27364;49.026;8.712;2022-09-02T07:39:02;4.43;;;2.47;;
41677;SDS011;27364;49.026;8.712;2022-09-02T07:41:28;4.85;;;2.47;;
41677;SDS011;27364;49.026;8.712;2022-09-02T07:43:54;5.57;;;2.78;;
41677;SDS011;27364;49.026;8.712;2022-09-02T07:46:20;8.60;;;2.92;;
41677;SDS011;27364;49.026;8.712;2022-09-02T07:48:46;7.20;;;2.97;;
41677;SDS011;27364;49.026;8.712;2022-09-02T07:51:14;3.90;;;2.50;;
41677;SDS011;27364;49.026;8.712;2022-09-02T07:53:41;15.93;;;4.18;;
41677;SDS011;27364;49.026;8.712;2022-09-02T07:56:07;11.32;;;3.22;;
41677;SDS011;27364;49.026;8.712;2022-09-02T07:58:33;4.25;;;2.70;;
41677;SDS011;27364;49.026;8.712;2022-09-02T08:00:59;11.65;;;3.88;;
41677;SDS011;27364;49.026;8.712;2022-09-02T08:03:25;4.68;;;2.53;;
41677;SDS011;27364;49.026;8.712;2022-09-02T08:05:51;6.00;;;2.55;;
41677;SDS011;27364;49.026;8.712;2022-09-02T08:08:18;7.33;;;2.70;;
41677;SDS011;27364;49.026;8.712;2022-09-02T08:10:46;4.55;;;2.40;;
41677;SDS011;27364;49.026;8.712;2022-09-02T08:13:13;8.05;;;2.88;;
41677;SDS011;27364;49.026;8.712;2022-09-02T08:15:38;6.38;;;2.67;;
41677;SDS011;27364;49.026;8.712;2022-09-02T08:18:04;4.50;;;2.67;;
41677;SDS011;27364;49.026;8.712;2022-09-02T08:20:31;6.45;;;2.80;;
41677;SDS011;27364;49.026;8.712;2022-09-02T08:22:56;5.55;;;2.70;;
41677;SDS011;27364;49.026;8.712;2022-09-02T08:25:22;4.35;;;2.70;;
41677;SDS011;27364;49.026;8.712;2022-09-02T08:27:48;5.25;;;2.63;;
41677;SDS011;27364;49.026;8.712;2022-09-02T08:30:14;5.47;;;2.85;;
41677;SDS011;27364;49.026;8.712;2022-09-02T08:32:40;5.43;;;2.35;;
41677;SDS011;27364;49.026;8.712;2022-09-02T08:35:07;4.35;;;2.55;;
41677;SDS011;27364;49.026;8.712;2022-09-02T08:37:33;4.25;;;2.35;;
41677;SDS011;27364;49.026;8.712;2022-09-02T08:40:00;6.63;;;2.70;;
41677;SDS011;27364;49.026;8.712;2022-09-02T08:43:08;5.07;;;2.60;;
41677;SDS011;27364;49.026;8.712;2022-09-02T08:45:37;7.22;;;2.85;;
41677;SDS011;27364;49.026;8.712;2022-09-02T08:50:45;5.47;;;2.33;;
41677;SDS011;27364;49.026;8.712;2022-09-02T08:55:57;4.32;;;2.40;;
41677;SDS011;27364;49.026;8.712;2022-09-02T08:58:26;5.28;;;2.55;;
41677;SDS011;27364;49.026;8.712;2022-09-02T09:01:06;4.15;;;2.40;;
41677;SDS011;27364;49.026;8.712;2022-09-02T09:03:44;4.25;;;2.00;;
41677;SDS011;27364;49.026;8.712;2022-09-02T09:06:24;5.65;;;2.08;;
41677;SDS011;27364;49.026;8.712;2022-09-02T09:09:43;3.90;;;2.50;;
41677;SDS011;27364;49.026;8.712;2022-09-02T09:12:28;4.05;;;2.30;;
41677;SDS011;27364;49.026;8.712;2022-09-02T09:18:32;5.35;;;2.10;;
41677;SDS011;27364;49.026;8.712;2022-09-02T09:21:03;5.10;;;2.40;;
41677;SDS011;27364;49.026;8.712;2022-09-02T09:23:31;3.72;;;2.13;;
41677;SDS011;27364;49.026;8.712;2022-09-02T09:26:11;4.75;;;2.28;;
41677;SDS011;27364;49.026;8.712;2022-09-02T09:28:41;4.57;;;2.17;;
41677;SDS011;27364;49.026;8.712;2022-09-02T09:31:10;2.90;;;1.88;;
41677;SDS011;27364;49.026;8.712;2022-09-02T09:33:38;5.80;;;2.08;;
41677;SDS011;27364;49.026;8.712;2022-09-02T09:36:05;6.60;;;2.10;;
41677;SDS011;27364;49.026;8.712;2022-09-02T09:38:32;5.13;;;2.00;;
41677;SDS011;27364;49.026;8.712;2022-09-02T09:41:09;3.55;;;1.98;;
41677;SDS011;27364;49.026;8.712;2022-09-02T09:43:38;4.50;;;2.00;;
41677;SDS011;27364;49.026;8.712;2022-09-02T09:48:56;7.32;;;2.10;;
41677;SDS011;27364;49.026;8.712;2022-09-02T09:51:22;4.90;;;2.00;;
41677;SDS011;27364;49.026;8.712;2022-09-02T09:53:48;5.80;;;1.73;;
41677;SDS011;27364;49.026;8.712;2022-09-02T10:04:08;3.33;;;1.83;;
41677;SDS011;27364;49.026;8.712;2022-09-02T10:06:40;2.83;;;1.75;;
41677;SDS011;27364;49.026;8.712;2022-09-02T10:09:24;3.47;;;1.80;;
41677;SDS011;27364;49.026;8.712;2022-09-02T10:12:06;4.72;;;1.73;;
41677;SDS011;27364;49.026;8.712;2022-09-02T10:14:36;5.65;;;1.77;;
41677;SDS011;27364;49.026;8.712;2022-09-02T10:36:23;2.38;;;1.60;;
41677;SDS011;27364;49.026;8.712;2022-09-02T10:39:21;5.25;;;1.70;;
41677;SDS011;27364;49.026;8.712;2022-09-02T10:45:10;3.75;;;1.80;;
41677;SDS011;27364;49.026;8.712;2022-09-02T10:47:47;3.17;;;1.70;;
41677;SDS011;27364;49.026;8.712;2022-09-02T10:53:04;9.52;;;1.77;;
41677;SDS011;27364;49.026;8.712;2022-09-02T11:01:15;3.38;;;1.60;;
41677;SDS011;27364;49.026;8.712;2022-09-02T11:03:48;3.70;;;1.60;;
41677;SDS011;27364;49.026;8.712;2022-09-02T11:06:37;3.83;;;1.70;;
41677;SDS011;27364;49.026;8.712;2022-09-02T11:09:11;3.80;;;1.90;;
41677;SDS011;27364;49.026;8.712;2022-09-02T11:11:41;3.45;;;1.60;;
41677;SDS011;27364;49.026;8.712;2022-09-02T11:14:21;3.22;;;1.67;;
41677;SDS011;27364;49.026;8.712;2022-09-02T11:22:18;3.90;;;1.60;;
41677;SDS011;27364;49.026;8.712;2022-09-02T11:25:26;2.47;;;1.55;;
41677;SDS011;27364;49.026;8.712;2022-09-02T11:30:56;2.47;;;1.60;;
41677;SDS011;27364;49.026;8.712;2022-09-02T11:33:42;4.20;;;1.80;;
41677;SDS011;27364;49.026;8.712;2022-09-02T11:36:14;4.75;;;1.60;;
41677;SDS011;27364;49.026;8.712;2022-09-02T11:38:48;3.83;;;1.70;;
41677;SDS011;27364;49.026;8.712;2022-09-02T11:41:45;3.08;;;1.60;;
41677;SDS011;27364;49.026;8.712;2022-09-02T11:53:16;2.88;;;1.50;;
41677;SDS011;27364;49.026;8.712;2022-09-02T11:55:51;2.70;;;1.60;;
41677;SDS011;27364;49.026;8.712;2022-09-02T11:58:32;3.83;;;1.60;;
41677;SDS011;27364;49.026;8.712;2022-09-02T12:04:40;4.78;;;1.63;;
41677;SDS011;27364;49.026;8.712;2022-09-02T12:06:34;2.70;;;1.55;;
41677;SDS011;27364;49.026;8.712;2022-09-02T12:09:01;2.55;;;1.55;;
41677;SDS011;27364;49.026;8.712;2022-09-02T12:11:34;2.70;;;1.60;;
41677;SDS011;27364;49.026;8.712;2022-09-02T12:17:07;3.20;;;1.60;;
41677;SDS011;27364;49.026;8.712;2022-09-02T12:19:50;6.85;;;1.55;;
41677;SDS011;27364;49.026;8.712;2022-09-02T12:22:23;6.72;;;1.52;;
41677;SDS011;27364;49.026;8.712;2022-09-02T12:24:57;3.10;;;1.50;;
41677;SDS011;27364;49.026;8.712;2022-09-02T12:27:28;3.80;;;1.50;;
41677;SDS011;27364;49.026;8.712;2022-09-02T12:29:57;3.85;;;1.60;;
41677;SDS011;27364;49.026;8.712;2022-09-02T12:35:27;5.97;;;1.77;;
41677;SDS011;27364;49.026;8.712;2022-09-02T12:38:21;8.88;;;1.60;;
41677;SDS011;27364;49.026;8.712;2022-09-02T12:49:28;3.42;;;1.60;;
41677;SDS011;27364;49.026;8.712;2022-09-02T12:52:07;4.05;;;1.40;;
41677;SDS011;27364;49.026;8.712;2022-09-02T12:57:11;3.65;;;1.65;;
41677;SDS011;27364;49.026;8.712;2022-09-02T12:59:40;4.03;;;2.00;;
41677;SDS011;27364;49.026;8.712;2022-09-02T13:02:22;3.00;;;1.70;;
41677;SDS011;27364;49.026;8.712;2022-09-02T13:05:16;3.65;;;1.40;;
41677;SDS011;27364;49.026;8.712;2022-09-02T13:13:26;3.58;;;1.40;;
41677;SDS011;27364;49.026;8.712;2022-09-02T13:16:10;4.50;;;1.60;;
41677;SDS011;27364;49.026;8.712;2022-09-02T13:32:33;2.55;;;1.40;;
41677;SDS011;27364;49.026;8.712;2022-09-02T13:35:03;3.37;;;1.70;;
41677;SDS011;27364;49.026;8.712;2022-09-02T13:40:18;3.88;;;1.50;;
41677;SDS011;27364;49.026;8.712;2022-09-02T13:42:46;3.40;;;1.40;;
41677;SDS011;27364;49.026;8.712;2022-09-02T13:45:17;4.45;;;1.38;;
41677;SDS011;27364;49.026;8.712;2022-09-02T13:47:49;3.50;;;1.35;;
41677;SDS011;27364;49.026;8.712;2022-09-02T13:50:18;3.55;;;1.50;;
41677;SDS011;27364;49.026;8.712;2022-09-02T13:52:50;2.72;;;1.30;;
41677;SDS011;27364;49.026;8.712;2022-09-02T13:55:24;4.28;;;1.50;;
41677;SDS011;27364;49.026;8.712;2022-09-02T14:00:26;2.95;;;1.50;;
41677;SDS011;27364;49.026;8.712;2022-09-02T14:03:15;3.08;;;1.40;;
41677;SDS011;27364;49.026;8.712;2022-09-02T14:05:46;2.22;;;1.40;;
41677;SDS011;27364;49.026;8.712;2022-09-02T14:08:17;4.05;;;1.48;;
41677;SDS011;27364;49.026;8.712;2022-09-02T14:10:45;2.72;;;1.50;;
41677;SDS011;27364;49.026;8.712;2022-09-02T14:13:13;2.92;;;1.42;;
41677;SDS011;27364;49.026;8.712;2022-09-02T14:15:40;3.28;;;1.40;;
41677;SDS011;27364;49.026;8.712;2022-09-02T14:20:32;2.73;;;1.43;;
41677;SDS011;27364;49.026;8.712;2022-09-02T14:22:58;3.35;;;1.38;;
41677;SDS011;27364;49.026;8.712;2022-09-02T14:25:25;2.92;;;1.50;;
41677;SDS011;27364;49.026;8.712;2022-09-02T14:27:56;3.47;;;1.40;;
41677;SDS011;27364;49.026;8.712;2022-09-02T14:30:31;2.53;;;1.30;;
41677;SDS011;27364;49.026;8.712;2022-09-02T14:41:26;5.32;;;1.70;;
41677;SDS011;27364;49.026;8.712;2022-09-02T14:43:58;3.20;;;1.30;;
41677;SDS011;27364;49.026;8.712;2022-09-02T14:46:34;10.57;;;1.50;;
41677;SDS011;27364;49.026;8.712;2022-09-02T14:49:03;3.10;;;1.63;;
41677;SDS011;27364;49.026;8.712;2022-09-02T14:51:33;1.90;;;1.20;;
41677;SDS011;27364;49.026;8.712;2022-09-02T14:54:07;2.20;;;1.20;;
41677;SDS011;27364;49.026;8.712;2022-09-02T14:59:10;3.37;;;1.37;;
41677;SDS011;27364;49.026;8.712;2022-09-02T15:01:39;3.22;;;1.50;;
41677;SDS011;27364;49.026;8.712;2022-09-02T15:04:08;5.30;;;1.73;;
41677;SDS011;27364;49.026;8.712;2022-09-02T15:06:34;3.00;;;1.40;;
41677;SDS011;27364;49.026;8.712;2022-09-02T15:08:59;2.88;;;1.33;;
41677;SDS011;27364;49.026;8.712;2022-09-02T15:11:25;2.83;;;1.40;;
41677;SDS011;27364;49.026;8.712;2022-09-02T15:13:51;11.00;;;1.83;;
41677;SDS011;27364;49.026;8.712;2022-09-02T15:16:17;2.47;;;1.30;;
41677;SDS011;27364;49.026;8.712;2022-09-02T15:18:42;2.95;;;1.33;;
41677;SDS011;27364;49.026;8.712;2022-09-02T15:21:08;3.75;;;1.40;;
41677;SDS011;27364;49.026;8.712;2022-09-02T15:23:33;9.43;;;1.65;;
41677;SDS011;27364;49.026;8.712;2022-09-02T15:26:03;2.95;;;1.52;;
41677;SDS011;27364;49.026;8.712;2022-09-02T15:28:29;2.50;;;1.25;;
41677;SDS011;27364;49.026;8.712;2022-09-02T15:30:58;3.42;;;1.40;;
41677;SDS011;27364;49.026;8.712;2022-09-02T15:33:25;2.33;;;1.30;;
41677;SDS011;27364;49.026;8.712;2022-09-02T15:35:52;3.30;;;1.57;;
41677;SDS011;27364;49.026;8.712;2022-09-02T15:40:44;2.60;;;1.50;;
41677;SDS011;27364;49.026;8.712;2022-09-02T15:43:10;3.83;;;1.65;;
41677;SDS011;27364;49.026;8.712;2022-09-02T15:45:45;3.88;;;1.30;;
41677;SDS011;27364;49.026;8.712;2022-09-02T15:48:14;2.83;;;1.15;;
41677;SDS011;27364;49.026;8.712;2022-09-02T15:50:40;2.50;;;1.40;;
41677;SDS011;27364;49.026;8.712;2022-09-02T15:53:05;2.53;;;1.50;;
41677;SDS011;27364;49.026;8.712;2022-09-02T15:55:31;2.78;;;1.40;;
41677;SDS011;27364;49.026;8.712;2022-09-02T15:57:57;2.70;;;1.40;;
41677;SDS011;27364;49.026;8.712;2022-09-02T16:00:23;2.28;;;1.50;;
41677;SDS011;27364;49.026;8.712;2022-09-02T16:02:50;2.63;;;1.30;;
41677;SDS011;27364;49.026;8.712;2022-09-02T16:05:16;2.97;;;1.55;;
41677;SDS011;27364;49.026;8.712;2022-09-02T16:07:42;4.80;;;1.60;;
41677;SDS011;27364;49.026;8.712;2022-09-02T16:10:08;4.10;;;1.60;;
41677;SDS011;27364;49.026;8.712;2022-09-02T16:12:34;2.60;;;1.50;;
41677;SDS011;27364;49.026;8.712;2022-09-02T16:15:00;3.70;;;1.40;;
41677;SDS011;27364;49.026;8.712;2022-09-02T16:17:25;4.53;;;1.50;;
41677;SDS011;27364;49.026;8.712;2022-09-02T16:19:51;3.40;;;1.55;;
41677;SDS011;27364;49.026;8.712;2022-09-02T16:22:17;3.57;;;1.60;;
41677;SDS011;27364;49.026;8.712;2022-09-02T16:24:43;3.38;;;1.58;;
41677;SDS011;27364;49.026;8.712;2022-09-02T16:27:08;3.28;;;1.52;;
41677;SDS011;27364;49.026;8.712;2022-09-02T16:29:34;2.60;;;1.73;;
41677;SDS011;27364;49.026;8.712;2022-09-02T16:32:01;2.80;;;1.55;;
41677;SDS011;27364;49.026;8.712;2022-09-02T16:34:27;3.33;;;1.70;;
41677;SDS011;27364;49.026;8.712;2022-09-02T16:36:53;4.72;;;1.60;;
41677;SDS011;27364;49.026;8.712;2022-09-02T16:39:18;2.47;;;1.60;;
41677;SDS011;27364;49.026;8.712;2022-09-02T16:41:49;4.18;;;1.70;;
41677;SDS011;27364;49.026;8.712;2022-09-02T16:44:18;2.95;;;1.75;;
41677;SDS011;27364;49.026;8.712;2022-09-02T16:46:46;2.22;;;1.55;;
41677;SDS011;27364;49.026;8.712;2022-09-02T16:49:13;4.60;;;1.60;;
41677;SDS011;27364;49.026;8.712;2022-09-02T16:51:42;3.60;;;1.60;;
41677;SDS011;27364;49.026;8.712;2022-09-02T16:54:10;3.30;;;1.60;;
41677;SDS011;27364;49.026;8.712;2022-09-02T16:56:36;3.13;;;1.55;;
41677;SDS011;27364;49.026;8.712;2022-09-02T16:59:03;3.60;;;1.67;;
41677;SDS011;27364;49.026;8.712;2022-09-02T17:01:31;4.78;;;1.50;;
41677;SDS011;27364;49.026;8.712;2022-09-02T17:03:56;2.78;;;1.60;;
41677;SDS011;27364;49.026;8.712;2022-09-02T17:06:24;2.53;;;1.60;;
41677;SDS011;27364;49.026;8.712;2022-09-02T17:08:49;4.78;;;1.55;;
41677;SDS011;27364;49.026;8.712;2022-09-02T17:11:19;4.50;;;1.98;;
41677;SDS011;27364;49.026;8.712;2022-09-02T17:13:55;11.15;;;1.80;;
41677;SDS011;27364;49.026;8.712;2022-09-02T17:16:23;6.80;;;1.50;;
41677;SDS011;27364;49.026;8.712;2022-09-02T17:18:51;3.67;;;1.60;;
41677;SDS011;27364;49.026;8.712;2022-09-02T17:23:48;2.72;;;1.52;;
41677;SDS011;27364;49.026;8.712;2022-09-02T17:26:15;7.60;;;1.65;;
41677;SDS011;27364;49.026;8.712;2022-09-02T17:28:41;2.80;;;1.60;;
41677;SDS011;27364;49.026;8.712;2022-09-02T17:33:54;7.60;;;2.00;;
41677;SDS011;27364;49.026;8.712;2022-09-02T17:36:22;16.42;;;2.17;;
41677;SDS011;27364;49.026;8.712;2022-09-02T17:38:53;3.15;;;1.65;;
41677;SDS011;27364;49.026;8.712;2022-09-02T17:41:23;3.40;;;1.65;;
41677;SDS011;27364;49.026;8.712;2022-09-02T17:44:08;3.13;;;1.70;;
41677;SDS011;27364;49.026;8.712;2022-09-02T17:46:35;4.67;;;1.60;;
41677;SDS011;27364;49.026;8.712;2022-09-02T17:49:00;5.30;;;2.42;;
41677;SDS011;27364;49.026;8.712;2022-09-02T17:51:27;3.15;;;1.70;;
41677;SDS011;27364;49.026;8.712;2022-09-02T17:53:52;2.97;;;1.65;;
41677;SDS011;27364;49.026;8.712;2022-09-02T17:56:27;4.40;;;1.80;;
41677;SDS011;27364;49.026;8.712;2022-09-02T17:59:17;3.70;;;2.17;;
41677;SDS011;27364;49.026;8.712;2022-09-02T18:10:17;5.32;;;2.13;;
41677;SDS011;27364;49.026;8.712;2022-09-02T18:12:43;5.72;;;1.80;;
41677;SDS011;27364;49.026;8.712;2022-09-02T18:15:09;3.63;;;1.90;;
41677;SDS011;27364;49.026;8.712;2022-09-02T18:17:40;3.67;;;2.25;;
41677;SDS011;27364;49.026;8.712;2022-09-02T18:25:49;4.20;;;2.10;;
41677;SDS011;27364;49.026;8.712;2022-09-02T18:47:46;5.70;;;2.28;;
41677;SDS011;27364;49.026;8.712;2022-09-02T18:50:24;5.35;;;2.38;;
41677;SDS011;27364;49.026;8.712;2022-09-02T18:53:03;4.13;;;2.00;;
41677;SDS011;27364;49.026;8.712;2022-09-02T18:55:35;7.32;;;2.45;;
41677;SDS011;27364;49.026;8.712;2022-09-02T19:00:40;4.43;;;2.15;;
41677;SDS011;27364;49.026;8.712;2022-09-02T19:03:09;6.70;;;2.30;;
41677;SDS011;27364;49.026;8.712;2022-09-02T19:05:35;4.28;;;3.00;;